sensor_id;sensor_type;location;lat;lon;timestamp;pressure;altitude;pressure_sealevel;temperature;humidity
61506;BME280;47366;51.916;4.574;2023-04-20T00:01:27;102480.28;;;8.06;44.97
61506;BME280;47366;51.916;4.574;2023-04-20T00:03:52;102474.94;;;8.03;45.78
61506;BME280;47366;51.916;4.574;2023-04-20T00:06:18;102478.56;;;8.02;46.10
61506;BME280;47366;51.916;4.574;2023-04-20T00:08:45;102473.16;;;8.03;45.29
61506;BME280;47366;51.916;4.574;2023-04-20T00:11:11;102482.16;;;8.02;45.78
61506;BME280;47366;51.916;4.574;2023-04-20T00:13:36;102470.59;;;7.97;45.39
61506;BME280;47366;51.916;4.574;2023-04-20T00:16:01;102470.50;;;8.00;45.46
61506;BME280;47366;51.916;4.574;2023-04-20T00:18:27;102464.34;;;7.95;44.97
61506;BME280;47366;51.916;4.574;2023-04-20T00:20:52;102468.75;;;7.99;45.65
61506;BME280;47366;51.916;4.574;2023-04-20T00:23:18;102460.75;;;7.96;45.69
61506;BME280;47366;51.916;4.574;2023-04-20T00:25:43;102466.06;;;7.98;45.89
61506;BME280;47366;51.916;4.574;2023-04-20T00:28:08;102457.13;;;7.96;45.77
61506;BME280;47366;51.916;4.574;2023-04-20T00:30:34;102464.22;;;8.00;46.28
61506;BME280;47366;51.916;4.574;2023-04-20T00:32:59;102466.91;;;8.01;46.29
61506;BME280;47366;51.916;4.574;2023-04-20T00:35:24;102460.75;;;7.95;45.60
61506;BME280;47366;51.916;4.574;2023-04-20T00:37:50;102461.72;;;7.92;46.30
61506;BME280;47366;51.916;4.574;2023-04-20T00:40:15;102457.22;;;7.93;46.40
61506;BME280;47366;51.916;4.574;2023-04-20T00:42:41;102460.00;;;7.90;46.40
61506;BME280;47366;51.916;4.574;2023-04-20T00:45:07;102457.25;;;7.91;46.43
61506;BME280;47366;51.916;4.574;2023-04-20T00:47:32;102448.38;;;7.86;46.40
61506;BME280;47366;51.916;4.574;2023-04-20T00:49:57;102457.31;;;7.88;46.38
61506;BME280;47366;51.916;4.574;2023-04-20T00:52:23;102449.31;;;7.85;46.38
61506;BME280;47366;51.916;4.574;2023-04-20T00:54:48;102446.72;;;7.80;46.81
61506;BME280;47366;51.916;4.574;2023-04-20T00:57:17;102438.75;;;7.76;46.62
61506;BME280;47366;51.916;4.574;2023-04-20T00:59:43;102436.03;;;7.76;46.49
61506;BME280;47366;51.916;4.574;2023-04-20T01:02:08;102440.59;;;7.74;46.94
61506;BME280;47366;51.916;4.574;2023-04-20T01:04:34;102437.13;;;7.69;46.79
61506;BME280;47366;51.916;4.574;2023-04-20T01:07:03;102427.09;;;7.74;47.04
61506;BME280;47366;51.916;4.574;2023-04-20T01:09:29;102433.47;;;7.70;47.00
61506;BME280;47366;51.916;4.574;2023-04-20T01:11:55;102427.19;;;7.71;47.16
61506;BME280;47366;51.916;4.574;2023-04-20T01:14:20;102413.69;;;7.71;47.07
61506;BME280;47366;51.916;4.574;2023-04-20T01:16:46;102416.41;;;7.69;47.19
61506;BME280;47366;51.916;4.574;2023-04-20T01:19:11;102413.63;;;7.72;47.65
61506;BME280;47366;51.916;4.574;2023-04-20T01:21:37;102411.78;;;7.76;47.87
61506;BME280;47366;51.916;4.574;2023-04-20T01:24:02;102395.59;;;7.76;47.90
61506;BME280;47366;51.916;4.574;2023-04-20T01:26:27;102389.19;;;7.80;48.13
61506;BME280;47366;51.916;4.574;2023-04-20T01:28:53;102391.91;;;7.80;47.61
61506;BME280;47366;51.916;4.574;2023-04-20T01:31:18;102384.72;;;7.79;47.27
61506;BME280;47366;51.916;4.574;2023-04-20T01:33:43;102379.38;;;7.77;47.38
61506;BME280;47366;51.916;4.574;2023-04-20T01:36:09;102387.50;;;7.76;47.30
61506;BME280;47366;51.916;4.574;2023-04-20T01:38:35;102388.53;;;7.70;47.41
61506;BME280;47366;51.916;4.574;2023-04-20T01:41:03;102373.28;;;7.69;47.69
61506;BME280;47366;51.916;4.574;2023-04-20T01:43:29;102375.13;;;7.67;47.73
61506;BME280;47366;51.916;4.574;2023-04-20T01:45:54;102368.84;;;7.66;47.41
61506;BME280;47366;51.916;4.574;2023-04-20T01:48:20;102359.97;;;7.61;47.64
61506;BME280;47366;51.916;4.574;2023-04-20T01:50:45;102360.84;;;7.63;47.70
61506;BME280;47366;51.916;4.574;2023-04-20T01:53:14;102349.97;;;7.66;47.91
61506;BME280;47366;51.916;4.574;2023-04-20T01:55:39;102355.53;;;7.60;47.79
61506;BME280;47366;51.916;4.574;2023-04-20T01:58:05;102363.47;;;7.65;48.19
61506;BME280;47366;51.916;4.574;2023-04-20T02:00:30;102358.13;;;7.63;48.30
61506;BME280;47366;51.916;4.574;2023-04-20T02:02:55;102355.44;;;7.63;48.26
61506;BME280;47366;51.916;4.574;2023-04-20T02:05:21;102348.22;;;7.64;48.37
61506;BME280;47366;51.916;4.574;2023-04-20T02:07:46;102353.59;;;7.65;48.69
61506;BME280;47366;51.916;4.574;2023-04-20T02:10:12;102353.59;;;7.65;48.73
61506;BME280;47366;51.916;4.574;2023-04-20T02:12:37;102353.59;;;7.65;48.55
61506;BME280;47366;51.916;4.574;2023-04-20T02:15:03;102347.56;;;7.54;48.46
61506;BME280;47366;51.916;4.574;2023-04-20T02:17:29;102349.41;;;7.52;48.88
61506;BME280;47366;51.916;4.574;2023-04-20T02:19:56;102339.63;;;7.48;49.30
61506;BME280;47366;51.916;4.574;2023-04-20T02:22:22;102339.63;;;7.48;49.30
61506;BME280;47366;51.916;4.574;2023-04-20T02:24:47;102338.72;;;7.49;49.89
61506;BME280;47366;51.916;4.574;2023-04-20T02:27:12;102335.09;;;7.50;49.41
61506;BME280;47366;51.916;4.574;2023-04-20T02:29:38;102327.09;;;7.47;49.57
61506;BME280;47366;51.916;4.574;2023-04-20T02:32:03;102332.47;;;7.47;49.92
61506;BME280;47366;51.916;4.574;2023-04-20T02:34:29;102325.31;;;7.46;49.59
61506;BME280;47366;51.916;4.574;2023-04-20T02:36:54;102321.78;;;7.44;50.16
61506;BME280;47366;51.916;4.574;2023-04-20T02:39:20;102320.94;;;7.42;50.05
61506;BME280;47366;51.916;4.574;2023-04-20T02:41:45;102307.44;;;7.42;50.76
61506;BME280;47366;51.916;4.574;2023-04-20T02:44:10;102319.09;;;7.44;50.76
61506;BME280;47366;51.916;4.574;2023-04-20T02:46:36;102314.59;;;7.43;50.61
61506;BME280;47366;51.916;4.574;2023-04-20T02:49:01;102312.75;;;7.45;51.69
61506;BME280;47366;51.916;4.574;2023-04-20T02:51:27;102306.47;;;7.44;51.53
61506;BME280;47366;51.916;4.574;2023-04-20T02:53:54;102306.59;;;7.40;52.17
61506;BME280;47366;51.916;4.574;2023-04-20T02:56:19;102297.56;;;7.41;52.42
61506;BME280;47366;51.916;4.574;2023-04-20T02:58:46;102302.91;;;7.44;52.49
61506;BME280;47366;51.916;4.574;2023-04-20T03:01:12;102296.78;;;7.37;52.25
61506;BME280;47366;51.916;4.574;2023-04-20T03:03:38;102290.44;;;7.38;52.49
61506;BME280;47366;51.916;4.574;2023-04-20T03:06:03;102295.84;;;7.38;54.29
61506;BME280;47366;51.916;4.574;2023-04-20T03:08:29;102295.91;;;7.37;53.74
61506;BME280;47366;51.916;4.574;2023-04-20T03:10:54;102289.66;;;7.35;53.85
61506;BME280;47366;51.916;4.574;2023-04-20T03:13:19;102282.47;;;7.34;54.89
61506;BME280;47366;51.916;4.574;2023-04-20T03:15:45;102290.56;;;7.34;55.14
61506;BME280;47366;51.916;4.574;2023-04-20T03:18:10;102283.28;;;7.39;54.61
61506;BME280;47366;51.916;4.574;2023-04-20T03:20:35;102274.25;;;7.40;55.49
61506;BME280;47366;51.916;4.574;2023-04-20T03:23:01;102275.94;;;7.44;56.60
61506;BME280;47366;51.916;4.574;2023-04-20T03:25:26;102275.00;;;7.45;56.15
61506;BME280;47366;51.916;4.574;2023-04-20T03:27:52;102275.94;;;7.44;54.99
61506;BME280;47366;51.916;4.574;2023-04-20T03:30:17;102264.34;;;7.40;57.25
61506;BME280;47366;51.916;4.574;2023-04-20T03:32:43;102262.72;;;7.33;57.58
61506;BME280;47366;51.916;4.574;2023-04-20T03:35:09;102256.47;;;7.33;56.81
61506;BME280;47366;51.916;4.574;2023-04-20T03:37:36;102259.19;;;7.31;57.07
61506;BME280;47366;51.916;4.574;2023-04-20T03:40:02;102260.91;;;7.34;57.79
61506;BME280;47366;51.916;4.574;2023-04-20T03:42:27;102253.75;;;7.33;57.16
61506;BME280;47366;51.916;4.574;2023-04-20T03:44:54;102261.72;;;7.39;56.18
61506;BME280;47366;51.916;4.574;2023-04-20T03:47:19;102239.22;;;7.38;56.69
61506;BME280;47366;51.916;4.574;2023-04-20T03:49:44;102244.50;;;7.43;56.93
61506;BME280;47366;51.916;4.574;2023-04-20T03:52:10;102244.44;;;7.46;57.59
61506;BME280;47366;51.916;4.574;2023-04-20T03:54:35;102236.38;;;7.46;56.94
61506;BME280;47366;51.916;4.574;2023-04-20T03:57:00;102234.53;;;7.47;58.41
61506;BME280;47366;51.916;4.574;2023-04-20T03:59:26;102228.28;;;7.46;58.38
61506;BME280;47366;51.916;4.574;2023-04-20T04:01:52;102216.63;;;7.44;58.62
61506;BME280;47366;51.916;4.574;2023-04-20T04:04:18;102219.41;;;7.41;58.30
61506;BME280;47366;51.916;4.574;2023-04-20T04:06:43;102223.78;;;7.45;57.49
61506;BME280;47366;51.916;4.574;2023-04-20T04:09:08;102221.97;;;7.45;57.37
61506;BME280;47366;51.916;4.574;2023-04-20T04:11:34;102234.47;;;7.50;59.16
61506;BME280;47366;51.916;4.574;2023-04-20T04:13:59;102231.84;;;7.47;58.98
61506;BME280;47366;51.916;4.574;2023-04-20T04:16:25;102226.34;;;7.51;58.42
61506;BME280;47366;51.916;4.574;2023-04-20T04:18:50;102223.56;;;7.53;60.11
61506;BME280;47366;51.916;4.574;2023-04-20T04:21:15;102215.59;;;7.50;60.95
61506;BME280;47366;51.916;4.574;2023-04-20T04:23:41;102215.59;;;7.50;58.61
61506;BME280;47366;51.916;4.574;2023-04-20T04:26:07;102206.63;;;7.49;59.20
61506;BME280;47366;51.916;4.574;2023-04-20T04:28:32;102208.22;;;7.56;59.52
61506;BME280;47366;51.916;4.574;2023-04-20T04:30:58;102205.53;;;7.56;59.69
61506;BME280;47366;51.916;4.574;2023-04-20T04:33:25;102193.00;;;7.54;59.42
61506;BME280;47366;51.916;4.574;2023-04-20T04:35:51;102187.63;;;7.54;59.09
61506;BME280;47366;51.916;4.574;2023-04-20T04:38:17;102184.03;;;7.53;60.07
61506;BME280;47366;51.916;4.574;2023-04-20T04:40:43;102183.94;;;7.56;60.03
61506;BME280;47366;51.916;4.574;2023-04-20T04:43:10;102180.31;;;7.57;59.97
61506;BME280;47366;51.916;4.574;2023-04-20T04:45:38;102169.53;;;7.57;59.64
61506;BME280;47366;51.916;4.574;2023-04-20T04:48:05;102173.06;;;7.59;59.25
61506;BME280;47366;51.916;4.574;2023-04-20T04:50:31;102170.41;;;7.58;60.96
61506;BME280;47366;51.916;4.574;2023-04-20T04:52:56;102167.69;;;7.59;61.78
61506;BME280;47366;51.916;4.574;2023-04-20T04:55:21;102164.97;;;7.59;59.80
61506;BME280;47366;51.916;4.574;2023-04-20T04:57:47;102165.84;;;7.61;60.20
61506;BME280;47366;51.916;4.574;2023-04-20T05:00:12;102153.22;;;7.62;60.82
61506;BME280;47366;51.916;4.574;2023-04-20T05:02:38;102158.53;;;7.65;60.88
61506;BME280;47366;51.916;4.574;2023-04-20T05:05:04;102149.56;;;7.64;60.63
61506;BME280;47366;51.916;4.574;2023-04-20T05:07:29;102152.09;;;7.71;61.21
61506;BME280;47366;51.916;4.574;2023-04-20T05:09:55;102138.69;;;7.68;61.05
61506;BME280;47366;51.916;4.574;2023-04-20T05:12:20;102128.81;;;7.66;61.53
61506;BME280;47366;51.916;4.574;2023-04-20T05:14:46;102130.50;;;7.71;62.80
61506;BME280;47366;51.916;4.574;2023-04-20T05:17:11;102126.81;;;7.75;60.89
61506;BME280;47366;51.916;4.574;2023-04-20T05:19:36;102124.94;;;7.77;61.65
61506;BME280;47366;51.916;4.574;2023-04-20T05:22:02;102115.94;;;7.76;61.41
61506;BME280;47366;51.916;4.574;2023-04-20T05:24:27;102127.47;;;7.83;60.97
61506;BME280;47366;51.916;4.574;2023-04-20T05:26:52;102118.41;;;7.84;62.74
61506;BME280;47366;51.916;4.574;2023-04-20T05:29:18;102117.50;;;7.85;63.36
61506;BME280;47366;51.916;4.574;2023-04-20T05:31:43;102120.22;;;7.85;62.47
61506;BME280;47366;51.916;4.574;2023-04-20T05:34:09;102112.00;;;7.88;63.06
61506;BME280;47366;51.916;4.574;2023-04-20T05:36:35;102110.16;;;7.90;62.56
61506;BME280;47366;51.916;4.574;2023-04-20T05:39:00;102118.13;;;7.95;61.73
61506;BME280;47366;51.916;4.574;2023-04-20T05:41:25;102120.78;;;7.96;61.36
61506;BME280;47366;51.916;4.574;2023-04-20T05:43:53;102112.69;;;7.96;62.26
61506;BME280;47366;51.916;4.574;2023-04-20T05:46:19;102119.69;;;8.02;61.97
61506;BME280;47366;51.916;4.574;2023-04-20T05:48:44;102111.59;;;8.02;61.62
61506;BME280;47366;51.916;4.574;2023-04-20T05:51:10;102104.38;;;8.02;63.03
61506;BME280;47366;51.916;4.574;2023-04-20T05:53:35;102114.16;;;8.06;63.18
61506;BME280;47366;51.916;4.574;2023-04-20T05:56:00;102116.84;;;8.06;62.60
61506;BME280;47366;51.916;4.574;2023-04-20T05:58:26;102115.03;;;8.07;63.61
61506;BME280;47366;51.916;4.574;2023-04-20T06:00:52;102105.19;;;8.06;63.26
61506;BME280;47366;51.916;4.574;2023-04-20T06:03:17;102118.44;;;8.14;62.22
61506;BME280;47366;51.916;4.574;2023-04-20T06:05:42;102123.72;;;8.17;62.89
61506;BME280;47366;51.916;4.574;2023-04-20T06:08:08;102121.03;;;8.17;62.87
61506;BME280;47366;51.916;4.574;2023-04-20T06:10:33;102128.13;;;8.21;62.23
61506;BME280;47366;51.916;4.574;2023-04-20T06:12:59;102120.84;;;8.23;61.30
61506;BME280;47366;51.916;4.574;2023-04-20T06:15:24;102112.69;;;8.24;60.53
61506;BME280;47366;51.916;4.574;2023-04-20T06:17:49;102129.69;;;8.28;60.24
61506;BME280;47366;51.916;4.574;2023-04-20T06:20:17;102124.19;;;8.31;60.25
61506;BME280;47366;51.916;4.574;2023-04-20T06:22:44;102137.69;;;8.31;59.73
61506;BME280;47366;51.916;4.574;2023-04-20T06:25:10;102126.00;;;8.30;59.20
61506;BME280;47366;51.916;4.574;2023-04-20T06:27:35;102119.63;;;8.33;58.81
61506;BME280;47366;51.916;4.574;2023-04-20T06:30:01;102111.50;;;8.35;58.61
61506;BME280;47366;51.916;4.574;2023-04-20T06:32:26;102109.66;;;8.35;58.71
61506;BME280;47366;51.916;4.574;2023-04-20T06:34:51;102107.00;;;8.34;58.67
61506;BME280;47366;51.916;4.574;2023-04-20T06:37:17;102103.47;;;8.32;58.24
61506;BME280;47366;51.916;4.574;2023-04-20T06:39:43;102101.75;;;8.29;58.50
61506;BME280;47366;51.916;4.574;2023-04-20T06:42:08;102102.59;;;8.31;58.42
61506;BME280;47366;51.916;4.574;2023-04-20T06:44:34;102098.88;;;8.35;58.08
61506;BME280;47366;51.916;4.574;2023-04-20T06:46:59;102115.94;;;8.36;58.16
61506;BME280;47366;51.916;4.574;2023-04-20T06:49:25;102098.00;;;8.35;58.28
61506;BME280;47366;51.916;4.574;2023-04-20T06:51:50;102080.06;;;8.32;57.79
61506;BME280;47366;51.916;4.574;2023-04-20T06:54:16;102090.66;;;8.40;57.94
61506;BME280;47366;51.916;4.574;2023-04-20T06:56:41;102081.69;;;8.38;57.87
61506;BME280;47366;51.916;4.574;2023-04-20T06:59:06;102085.41;;;8.34;57.73
61506;BME280;47366;51.916;4.574;2023-04-20T07:01:32;102080.00;;;8.34;57.78
61506;BME280;47366;51.916;4.574;2023-04-20T07:03:57;102079.09;;;8.35;57.85
61506;BME280;47366;51.916;4.574;2023-04-20T07:06:22;102070.19;;;8.31;57.98
61506;BME280;47366;51.916;4.574;2023-04-20T07:08:49;102070.25;;;8.29;57.81
61506;BME280;47366;51.916;4.574;2023-04-20T07:11:14;102069.44;;;8.27;58.25
61506;BME280;47366;51.916;4.574;2023-04-20T07:13:39;102081.09;;;8.28;58.42
61506;BME280;47366;51.916;4.574;2023-04-20T07:16:05;102073.09;;;8.25;58.89
61506;BME280;47366;51.916;4.574;2023-04-20T07:18:30;102072.28;;;8.23;59.82
61506;BME280;47366;51.916;4.574;2023-04-20T07:20:56;102072.44;;;8.17;59.43
61506;BME280;47366;51.916;4.574;2023-04-20T07:23:21;102081.50;;;8.16;60.09
61506;BME280;47366;51.916;4.574;2023-04-20T07:25:46;102083.34;;;8.14;60.40
61506;BME280;47366;51.916;4.574;2023-04-20T07:28:12;102089.66;;;8.13;60.49
61506;BME280;47366;51.916;4.574;2023-04-20T07:30:37;102086.97;;;8.13;61.08
61506;BME280;47366;51.916;4.574;2023-04-20T07:33:03;102093.31;;;8.12;61.72
61506;BME280;47366;51.916;4.574;2023-04-20T07:35:28;102098.81;;;8.08;61.87
61506;BME280;47366;51.916;4.574;2023-04-20T07:37:53;102097.16;;;8.03;61.34
61506;BME280;47366;51.916;4.574;2023-04-20T07:40:19;102083.00;;;7.96;62.21
61506;BME280;47366;51.916;4.574;2023-04-20T07:42:44;102095.59;;;7.96;63.30
61506;BME280;47366;51.916;4.574;2023-04-20T07:45:12;102093.13;;;7.88;64.73
61506;BME280;47366;51.916;4.574;2023-04-20T07:47:38;102078.06;;;7.81;64.73
61506;BME280;47366;51.916;4.574;2023-04-20T07:50:04;102090.66;;;7.80;65.39
61506;BME280;47366;51.916;4.574;2023-04-20T07:52:30;102087.22;;;7.75;65.04
61506;BME280;47366;51.916;4.574;2023-04-20T07:54:55;102086.34;;;7.75;65.40
61506;BME280;47366;51.916;4.574;2023-04-20T07:57:23;102091.03;;;7.68;65.84
61506;BME280;47366;51.916;4.574;2023-04-20T07:59:48;102088.38;;;7.66;65.83
61506;BME280;47366;51.916;4.574;2023-04-20T08:02:14;102093.75;;;7.68;66.31
61506;BME280;47366;51.916;4.574;2023-04-20T08:04:40;102084.94;;;7.61;66.97
61506;BME280;47366;51.916;4.574;2023-04-20T08:07:05;102100.13;;;7.64;66.15
61506;BME280;47366;51.916;4.574;2023-04-20T08:09:31;102105.56;;;7.62;68.05
61506;BME280;47366;51.916;4.574;2023-04-20T08:11:56;102107.25;;;7.66;68.52
61506;BME280;47366;51.916;4.574;2023-04-20T08:14:21;102110.19;;;7.59;68.07
61506;BME280;47366;51.916;4.574;2023-04-20T08:16:47;102106.00;;;7.49;68.18
61506;BME280;47366;51.916;4.574;2023-04-20T08:19:12;102112.25;;;7.49;69.20
61506;BME280;47366;51.916;4.574;2023-04-20T08:21:39;102122.09;;;7.50;68.67
61506;BME280;47366;51.916;4.574;2023-04-20T08:24:05;102105.03;;;7.50;69.89
61506;BME280;47366;51.916;4.574;2023-04-20T08:26:31;102089.81;;;7.49;68.50
61506;BME280;47366;51.916;4.574;2023-04-20T08:28:58;102091.72;;;7.43;68.38
61506;BME280;47366;51.916;4.574;2023-04-20T08:31:23;102092.78;;;7.38;70.12
61506;BME280;47366;51.916;4.574;2023-04-20T08:33:49;102087.44;;;7.36;70.79
61506;BME280;47366;51.916;4.574;2023-04-20T08:36:14;102084.09;;;7.28;70.54
61506;BME280;47366;51.916;4.574;2023-04-20T08:38:40;102075.03;;;7.31;70.57
61506;BME280;47366;51.916;4.574;2023-04-20T08:41:05;102073.28;;;7.30;70.93
61506;BME280;47366;51.916;4.574;2023-04-20T08:43:31;102076.88;;;7.29;71.90
61506;BME280;47366;51.916;4.574;2023-04-20T08:45:58;102077.84;;;7.26;73.17
61506;BME280;47366;51.916;4.574;2023-04-20T08:48:24;102080.53;;;7.26;70.83
61506;BME280;47366;51.916;4.574;2023-04-20T08:50:52;102080.38;;;7.32;70.71
61506;BME280;47366;51.916;4.574;2023-04-20T08:53:18;102081.31;;;7.31;71.21
61506;BME280;47366;51.916;4.574;2023-04-20T08:55:43;102067.88;;;7.30;70.85
61506;BME280;47366;51.916;4.574;2023-04-20T08:58:09;102057.00;;;7.33;71.18
61506;BME280;47366;51.916;4.574;2023-04-20T09:00:34;102071.31;;;7.35;70.85
61506;BME280;47366;51.916;4.574;2023-04-20T09:02:59;102061.41;;;7.37;71.52
61506;BME280;47366;51.916;4.574;2023-04-20T09:05:27;102061.16;;;7.44;70.64
61506;BME280;47366;51.916;4.574;2023-04-20T09:07:59;102060.16;;;7.49;72.67
61506;BME280;47366;51.916;4.574;2023-04-20T09:10:26;102065.44;;;7.52;71.77
61506;BME280;47366;51.916;4.574;2023-04-20T09:13:02;102058.06;;;7.58;71.24
61506;BME280;47366;51.916;4.574;2023-04-20T09:15:29;102058.97;;;7.57;71.79
61506;BME280;47366;51.916;4.574;2023-04-20T09:17:56;102056.28;;;7.57;71.56
61506;BME280;47366;51.916;4.574;2023-04-20T09:20:28;102053.53;;;7.60;71.63
61506;BME280;47366;51.916;4.574;2023-04-20T09:22:54;102049.84;;;7.63;71.95
61506;BME280;47366;51.916;4.574;2023-04-20T09:25:19;102049.84;;;7.63;71.89
61506;BME280;47366;51.916;4.574;2023-04-20T09:27:57;102047.19;;;7.61;71.22
61506;BME280;47366;51.916;4.574;2023-04-20T09:30:22;102050.81;;;7.60;71.96
61506;BME280;47366;51.916;4.574;2023-04-20T09:32:48;102050.00;;;7.57;72.47
61506;BME280;47366;51.916;4.574;2023-04-20T09:35:21;102051.09;;;7.51;72.21
61506;BME280;47366;51.916;4.574;2023-04-20T09:37:47;102052.94;;;7.49;72.54
61506;BME280;47366;51.916;4.574;2023-04-20T09:40:13;102053.81;;;7.50;72.93
61506;BME280;47366;51.916;4.574;2023-04-20T09:42:39;102031.50;;;7.44;72.84
61506;BME280;47366;51.916;4.574;2023-04-20T09:45:07;102026.00;;;7.49;72.16
61506;BME280;47366;51.916;4.574;2023-04-20T09:47:34;102032.22;;;7.51;73.61
61506;BME280;47366;51.916;4.574;2023-04-20T09:50:02;102030.13;;;7.61;72.33
61506;BME280;47366;51.916;4.574;2023-04-20T09:52:28;102025.50;;;7.64;72.51
61506;BME280;47366;51.916;4.574;2023-04-20T09:54:55;102028.06;;;7.69;71.88
61506;BME280;47366;51.916;4.574;2023-04-20T09:57:22;102015.97;;;7.82;71.73
61506;BME280;47366;51.916;4.574;2023-04-20T09:59:49;102025.41;;;7.97;71.45
61506;BME280;47366;51.916;4.574;2023-04-20T10:02:15;102012.72;;;8.01;71.71
61506;BME280;47366;51.916;4.574;2023-04-20T10:04:54;102013.34;;;8.09;72.05
61506;BME280;47366;51.916;4.574;2023-04-20T10:07:27;102013.22;;;8.12;71.56
61506;BME280;47366;51.916;4.574;2023-04-20T10:10:08;102017.72;;;8.13;70.64
61506;BME280;47366;51.916;4.574;2023-04-20T10:15:16;102002.38;;;8.14;72.02
61506;BME280;47366;51.916;4.574;2023-04-20T10:17:42;101991.50;;;8.17;71.44
61506;BME280;47366;51.916;4.574;2023-04-20T10:20:23;101985.66;;;8.29;70.60
61506;BME280;47366;51.916;4.574;2023-04-20T10:22:51;101995.28;;;8.38;70.71
61506;BME280;47366;51.916;4.574;2023-04-20T10:25:21;101996.00;;;8.44;70.43
61506;BME280;47366;51.916;4.574;2023-04-20T10:27:55;102004.13;;;8.69;69.81
61506;BME280;47366;51.916;4.574;2023-04-20T10:30:22;102005.03;;;8.70;69.49
61506;BME280;47366;51.916;4.574;2023-04-20T10:32:48;101998.84;;;8.66;69.54
61506;BME280;47366;51.916;4.574;2023-04-20T10:35:14;101990.63;;;8.69;69.73
61506;BME280;47366;51.916;4.574;2023-04-20T10:37:50;101995.09;;;8.70;70.23
61506;BME280;47366;51.916;4.574;2023-04-20T10:40:23;101992.47;;;8.67;69.88
61506;BME280;47366;51.916;4.574;2023-04-20T10:42:48;101988.19;;;8.62;70.44
61506;BME280;47366;51.916;4.574;2023-04-20T10:45:14;101981.69;;;8.67;70.13
61506;BME280;47366;51.916;4.574;2023-04-20T10:47:39;101982.25;;;8.77;69.95
61506;BME280;47366;51.916;4.574;2023-04-20T10:52:36;101979.66;;;8.99;69.78
61506;BME280;47366;51.916;4.574;2023-04-20T10:55:02;101967.38;;;9.14;70.03
61506;BME280;47366;51.916;4.574;2023-04-20T10:57:28;101976.19;;;9.19;68.99
61506;BME280;47366;51.916;4.574;2023-04-20T10:59:53;101975.31;;;9.19;68.72
61506;BME280;47366;51.916;4.574;2023-04-20T11:02:18;101977.81;;;9.25;68.46
61506;BME280;47366;51.916;4.574;2023-04-20T11:04:44;101969.75;;;9.23;68.55
61506;BME280;47366;51.916;4.574;2023-04-20T11:07:10;101969.78;;;9.22;68.43
61506;BME280;47366;51.916;4.574;2023-04-20T11:09:39;101970.88;;;9.18;68.89
61506;BME280;47366;51.916;4.574;2023-04-20T11:12:08;101962.81;;;9.16;68.32
61506;BME280;47366;51.916;4.574;2023-04-20T11:14:37;101974.50;;;9.17;68.59
61506;BME280;47366;51.916;4.574;2023-04-20T11:17:04;101973.00;;;9.08;68.71
61506;BME280;47366;51.916;4.574;2023-04-20T11:19:32;101968.69;;;9.04;68.36
61506;BME280;47366;51.916;4.574;2023-04-20T11:21:58;101967.56;;;9.09;68.58
61506;BME280;47366;51.916;4.574;2023-04-20T11:24:28;101955.63;;;9.15;68.49
61506;BME280;47366;51.916;4.574;2023-04-20T11:26:54;101951.56;;;9.27;67.71
61506;BME280;47366;51.916;4.574;2023-04-20T11:29:27;101955.81;;;9.34;67.74
61506;BME280;47366;51.916;4.574;2023-04-20T11:31:53;101950.16;;;9.40;67.44
61506;BME280;47366;51.916;4.574;2023-04-20T11:34:18;101948.13;;;9.47;67.37
61506;BME280;47366;51.916;4.574;2023-04-20T11:36:44;101937.69;;;9.60;67.53
61506;BME280;47366;51.916;4.574;2023-04-20T11:39:23;101929.75;;;9.77;67.27
61506;BME280;47366;51.916;4.574;2023-04-20T11:41:48;101925.66;;;9.89;66.27
61506;BME280;47366;51.916;4.574;2023-04-20T11:44:14;101924.59;;;10.37;66.30
61506;BME280;47366;51.916;4.574;2023-04-20T11:46:39;101913.75;;;10.78;64.12
61506;BME280;47366;51.916;4.574;2023-04-20T11:49:04;101923.19;;;11.09;63.72
61506;BME280;47366;51.916;4.574;2023-04-20T11:51:30;101904.78;;;11.53;62.23
61506;BME280;47366;51.916;4.574;2023-04-20T11:53:56;101905.66;;;11.54;61.71
61506;BME280;47366;51.916;4.574;2023-04-20T11:56:21;101913.94;;;12.06;61.32
61506;BME280;47366;51.916;4.574;2023-04-20T11:58:47;101916.38;;;12.47;60.16
61506;BME280;47366;51.916;4.574;2023-04-20T12:01:13;101897.34;;;12.64;57.82
61506;BME280;47366;51.916;4.574;2023-04-20T12:03:39;101900.88;;;12.31;59.55
61506;BME280;47366;51.916;4.574;2023-04-20T12:06:04;101900.19;;;11.92;60.12
61506;BME280;47366;51.916;4.574;2023-04-20T12:08:29;101899.06;;;11.59;60.96
61506;BME280;47366;51.916;4.574;2023-04-20T12:10:55;101888.38;;;11.37;61.22
61506;BME280;47366;51.916;4.574;2023-04-20T12:13:21;101896.78;;;11.31;61.80
61506;BME280;47366;51.916;4.574;2023-04-20T12:15:46;101891.69;;;11.25;60.45
61506;BME280;47366;51.916;4.574;2023-04-20T12:18:11;101883.81;;;11.38;61.23
61506;BME280;47366;51.916;4.574;2023-04-20T12:20:37;101892.88;;;11.37;61.05
61506;BME280;47366;51.916;4.574;2023-04-20T12:23:02;101887.25;;;11.22;61.27
61506;BME280;47366;51.916;4.574;2023-04-20T12:25:27;101887.53;;;10.97;61.45
61506;BME280;47366;51.916;4.574;2023-04-20T12:27:53;101887.44;;;10.80;61.59
61506;BME280;47366;51.916;4.574;2023-04-20T12:30:18;101884.53;;;10.64;61.06
61506;BME280;47366;51.916;4.574;2023-04-20T12:32:43;101879.38;;;10.58;61.42
61506;BME280;47366;51.916;4.574;2023-04-20T12:35:09;101883.22;;;10.54;61.83
61506;BME280;47366;51.916;4.574;2023-04-20T12:37:34;101885.16;;;10.50;61.90
61506;BME280;47366;51.916;4.574;2023-04-20T12:39:59;101892.47;;;10.48;61.44
61506;BME280;47366;51.916;4.574;2023-04-20T12:42:25;101884.09;;;10.54;61.53
61506;BME280;47366;51.916;4.574;2023-04-20T12:44:53;101882.59;;;10.87;60.64
61506;BME280;47366;51.916;4.574;2023-04-20T12:47:20;101882.06;;;11.18;58.65
61506;BME280;47366;51.916;4.574;2023-04-20T12:49:45;101863.16;;;11.35;58.85
61506;BME280;47366;51.916;4.574;2023-04-20T12:52:11;101857.19;;;11.46;58.10
61506;BME280;47366;51.916;4.574;2023-04-20T12:54:36;101877.34;;;11.59;58.37
61506;BME280;47366;51.916;4.574;2023-04-20T12:57:01;101868.03;;;11.46;57.70
61506;BME280;47366;51.916;4.574;2023-04-20T12:59:27;101871.78;;;11.24;57.85